KSHDKHGR

Guest
Details From KSHD - Shenandoah Valley Regional
To KHGR - HAGERSTOWN RGNL RICHARD A HENSON FLD
Flight Number -
Tags generated
Created
Modified
Stats Distance 103 nm / 190 km
Max Altitude 9,100 ft / 2,774 m
Waypoints 3
Social Downloads 1
Likes 0
Share VATSIM

Download

Looking for another format? Having issues loading an existing format? Contact us
Advertisement - Login to hide

Notes

Basic altitude profile: - Ascent Rate: 2500ft/min - Ascent Speed: 250kts - Cruise Altitude: 35000ft - Cruise Speed: 420kts - Descent Rate: 1500ft/min - Descent Speed: 250kts Options: - Use NATs: yes - Use PACOTS: yes - Use low airways: yes - Use high airways: no

Route

KSHD KERRE KHGR

ID Type Via Altitude Latitude Longitude Leg Dist Tot Dist Heading (true) Name
O KSHD APT - 0 ft / 0 m 38.26384˚ -78.89647˚ - 0 nm - Shenandoah Valley Regional
KERRE FIX - 9,100 ft / 2,774 m 38.64194˚ -78.53238˚ 28 nm 28 nm 37° / 37° -
O KHGR APT - 0 ft / 0 m 39.70835˚ -77.72770˚ 74 nm 102 nm 30° / 31° HAGERSTOWN RGNL RICHARD A HENSON FLD

Altitude Profile

Advertisement - Login to hide

KSHD

Details ICAO KSHD (SHD)
Name Shenandoah Valley Regional
Region United States
Timezone America/New_York (UTC-5.0)
Stats Elevation 1,201 ft / 366 m (AMSL)
Location 38.263840° -78.896471°
Runways 1
Magnetic Variation 9.566° W

METAR

KSHD 150235Z AUTO 00000KT 10SM CLR M04/M08 A3004 RMK AO2 T10431076

Decode

TAF

Not found

Departure Runways

ID Width Length Bearing (true) Bearing (mag) Surface Threshold Offset Overrun Length
05 151 ft / 46 m 5,995 ft / 1,827 m 38.05° 47.62° Asphalt 184 ft / 56 m 0 ft / 0 m
23 151 ft / 46 m 5,995 ft / 1,827 m 218.05° 227.62° Asphalt 157 ft / 48 m 26 ft / 8 m

KHGR

Details ICAO KHGR (HGR)
Name HAGERSTOWN RGNL RICHARD A HENSON FLD
Region United States
Timezone America/New_York (UTC-5.0)
Stats Elevation 704 ft / 215 m (AMSL)
Location 39.708352° -77.727704°
Runways 2
Magnetic Variation 10.591° W

METAR

KHGR 150153Z 36007KT 10SM CLR M03/M12 A3008 RMK AO2 SLP203 T10331122

Decode

TAF

Not found

Destination Runways

ID Width Length Bearing (true) Bearing (mag) Surface Threshold Offset Overrun Length
02 98 ft / 30 m 3,163 ft / 964 m 14.80° 25.39° Asphalt 0 ft / 0 m 0 ft / 0 m
09 151 ft / 46 m 7,007 ft / 2,136 m 80.45° 91.04° Asphalt 0 ft / 0 m 384 ft / 117 m
20 98 ft / 30 m 3,163 ft / 964 m 194.81° 205.40° Asphalt 0 ft / 0 m 0 ft / 0 m
27 151 ft / 46 m 7,007 ft / 2,136 m 260.47° 271.06° Asphalt 115 ft / 35 m 0 ft / 0 m

Approach Navaids

Runway Type Ident Frequency Range Bearing (true) Bearing (mag) Slope Elevation
27 Localiser IHGR 111.90 MHz 18 nm / 33 km 260.42° 271.01° - 648 ft / 198 m (AMSL)
27 Glidescope IHGR 111.90 MHz 10 nm / 19 km 260.46° 271.05° 3.00° 695 ft / 212 m (AMSL)
27 DME IHGR 111.90 MHz 18 nm / 33 km - - - 660 ft / 201 m (AMSL)